createdAt,value
2022-10-10T00:00:14.755Z,13.25
2022-10-10T00:01:11.675Z,13.25
2022-10-10T00:02:08.977Z,12.29
2022-10-10T00:03:07.246Z,13.01
2022-10-10T00:04:05.716Z,12.74
2022-10-10T00:05:02.454Z,12.88
2022-10-10T00:05:59.169Z,12.94
2022-10-10T00:06:55.982Z,12.89
2022-10-10T00:07:52.781Z,13.01
2022-10-10T00:08:50.163Z,13.00
2022-10-10T00:09:47.538Z,13.29
2022-10-10T00:10:44.212Z,13.17
2022-10-10T00:11:40.925Z,13.35
2022-10-10T00:12:37.633Z,13.10
2022-10-10T00:13:35.241Z,13.21
2022-10-10T00:14:32.653Z,13.10
2022-10-10T00:15:29.471Z,12.52
2022-10-10T00:16:26.376Z,13.45
2022-10-10T00:17:23.116Z,13.28
2022-10-10T00:18:19.856Z,13.34
2022-10-10T00:19:16.591Z,13.35
2022-10-10T00:20:15.919Z,13.31
2022-10-10T00:21:12.694Z,13.12
2022-10-10T00:22:09.409Z,12.37
2022-10-10T00:23:06.105Z,12.67
2022-10-10T00:24:02.944Z,12.91
2022-10-10T00:24:59.647Z,12.85
2022-10-10T00:25:56.320Z,12.42
2022-10-10T00:26:52.999Z,12.69
2022-10-10T00:27:49.672Z,12.84
2022-10-10T00:28:47.266Z,12.61
2022-10-10T00:29:43.991Z,12.75
2022-10-10T00:30:40.913Z,12.59
2022-10-10T00:31:37.790Z,12.64
2022-10-10T00:32:35.938Z,12.50
2022-10-10T00:33:32.620Z,11.85
2022-10-10T00:34:29.366Z,12.77
2022-10-10T00:35:26.966Z,12.59
2022-10-10T00:36:23.723Z,12.57
2022-10-10T00:37:20.429Z,12.59
2022-10-10T00:38:17.122Z,12.33
2022-10-10T00:39:13.835Z,11.45
2022-10-10T00:40:11.746Z,12.36
2022-10-10T00:41:08.983Z,12.29
2022-10-10T00:42:05.754Z,12.21
2022-10-10T00:43:02.488Z,12.29
2022-10-10T00:44:15.597Z,12.35
2022-10-10T00:45:32.230Z,12.34
2022-10-10T00:46:28.918Z,12.32
2022-10-10T00:47:25.654Z,12.22
2022-10-10T00:48:35.351Z,12.26
2022-10-10T00:49:32.299Z,11.49
2022-10-10T00:50:33.402Z,12.09
2022-10-10T00:51:31.073Z,11.89
2022-10-10T00:52:27.802Z,11.85
2022-10-10T00:53:30.757Z,11.96
2022-10-10T00:54:28.714Z,11.77
2022-10-10T00:55:26.262Z,11.92
2022-10-10T00:56:29.531Z,11.79
2022-10-10T00:57:26.292Z,12.12
2022-10-10T00:58:24.537Z,12.01
2022-10-10T00:59:22.026Z,11.25
2022-10-10T01:00:18.928Z,11.93
2022-10-10T01:01:16.372Z,11.99
2022-10-10T01:02:13.159Z,11.88
2022-10-10T01:03:09.995Z,11.73
2022-10-10T01:04:07.202Z,11.88
2022-10-10T01:05:05.138Z,11.97
2022-10-10T01:06:02.318Z,12.02
2022-10-10T01:07:01.705Z,12.09
2022-10-10T01:08:00.306Z,11.30
2022-10-10T01:08:57.664Z,11.95
2022-10-10T01:10:00.209Z,12.02
2022-10-10T01:11:08.926Z,11.99
2022-10-10T01:12:27.223Z,12.14
2022-10-10T01:13:41.361Z,11.42
2022-10-10T01:14:52.757Z,12.14
2022-10-10T01:15:59.601Z,12.21
2022-10-10T01:17:02.031Z,12.12
2022-10-10T01:18:06.257Z,12.05
2022-10-10T01:19:21.480Z,11.96
2022-10-10T01:20:32.129Z,11.61
2022-10-10T01:22:04.127Z,11.87
2022-10-10T01:23:38.303Z,11.87
2022-10-10T01:24:53.285Z,11.99
2022-10-10T01:26:27.458Z,12.12
2022-10-10T01:27:42.422Z,12.02
2022-10-10T01:28:46.013Z,11.74
2022-10-10T01:29:57.947Z,12.00
2022-10-10T01:30:58.855Z,11.87
2022-10-10T01:32:04.682Z,11.61
2022-10-10T01:33:13.398Z,11.85
2022-10-10T01:34:13.044Z,12.01
2022-10-10T01:35:15.707Z,11.81
2022-10-10T01:36:29.242Z,11.81
2022-10-10T01:37:40.778Z,11.34
2022-10-10T01:39:06.478Z,11.57
2022-10-10T01:40:06.511Z,11.65
2022-10-10T01:41:07.120Z,11.66
2022-10-10T01:42:14.911Z,11.16
2022-10-10T01:43:12.789Z,11.84
2022-10-10T01:44:09.515Z,11.87
2022-10-10T01:45:06.735Z,11.68
2022-10-10T01:46:18.707Z,11.76
2022-10-10T01:47:15.378Z,11.71
2022-10-10T01:48:12.624Z,11.65
2022-10-10T01:49:09.939Z,10.98
2022-10-10T01:50:12.715Z,11.60
2022-10-10T01:51:15.356Z,11.60
2022-10-10T01:52:35.550Z,11.68
2022-10-10T01:53:43.739Z,11.61
2022-10-10T01:55:25.344Z,11.87
2022-10-10T01:56:37.196Z,11.98
2022-10-10T01:58:05.658Z,11.88
2022-10-10T01:59:02.280Z,11.72
2022-10-10T02:00:11.336Z,11.40
2022-10-10T02:01:28.287Z,11.58
2022-10-10T02:02:53.211Z,11.54
2022-10-10T02:04:24.086Z,11.70
2022-10-10T02:05:41.624Z,11.90
2022-10-10T02:07:09.930Z,12.03
2022-10-10T02:08:26.500Z,12.10
2022-10-10T02:09:35.802Z,11.93
2022-10-10T02:10:57.151Z,12.21
2022-10-10T02:11:56.558Z,12.17
2022-10-10T02:12:56.811Z,12.30
2022-10-10T02:14:02.110Z,12.22
2022-10-10T02:15:10.641Z,12.00
2022-10-10T02:16:15.599Z,11.96
2022-10-10T02:17:15.980Z,12.19
2022-10-10T02:18:18.096Z,12.17
2022-10-10T02:19:19.540Z,11.07
2022-10-10T02:20:21.847Z,11.86
2022-10-10T02:21:21.095Z,11.44
2022-10-10T02:22:21.293Z,11.95
2022-10-10T02:23:21.854Z,12.20
2022-10-10T02:24:21.399Z,12.26
2022-10-10T02:25:24.078Z,11.84
2022-10-10T02:26:23.669Z,12.02
2022-10-10T02:27:47.035Z,12.04
2022-10-10T02:28:55.940Z,11.81
2022-10-10T02:29:56.476Z,11.83
2022-10-10T02:30:59.539Z,11.31
2022-10-10T02:32:20.769Z,11.71
2022-10-10T02:33:27.035Z,11.64
2022-10-10T02:34:29.822Z,11.39
2022-10-10T02:35:38.470Z,10.59
2022-10-10T02:36:36.107Z,11.09
2022-10-10T02:37:34.343Z,11.45
2022-10-10T02:38:31.326Z,11.45
2022-10-10T02:39:34.007Z,11.26
2022-10-10T02:40:34.457Z,11.50
2022-10-10T02:41:35.405Z,11.46
2022-10-10T02:42:52.680Z,10.78
2022-10-10T02:43:52.182Z,11.44
2022-10-10T02:44:50.390Z,11.08
2022-10-10T02:45:47.191Z,11.31
2022-10-10T02:46:43.909Z,11.43
2022-10-10T02:47:40.636Z,10.47
2022-10-10T02:48:37.426Z,11.01
2022-10-10T02:49:35.363Z,11.26
2022-10-10T02:50:33.191Z,11.30
2022-10-10T02:51:30.596Z,11.30
2022-10-10T02:52:27.513Z,11.27
2022-10-10T02:53:24.215Z,11.26
2022-10-10T02:54:20.957Z,10.83
2022-10-10T02:55:17.692Z,11.56
2022-10-10T02:56:14.386Z,11.49
2022-10-10T02:57:11.191Z,11.40
2022-10-10T02:58:07.926Z,11.34
2022-10-10T02:59:04.635Z,11.39
2022-10-10T03:00:01.818Z,11.50
2022-10-10T03:00:58.620Z,11.49
2022-10-10T03:01:55.441Z,10.87
2022-10-10T03:02:52.578Z,11.51
2022-10-10T03:03:49.640Z,11.18
2022-10-10T03:04:46.412Z,11.08
2022-10-10T03:05:43.142Z,11.53
2022-10-10T03:06:39.903Z,11.39
2022-10-10T03:07:36.590Z,11.55
2022-10-10T03:08:33.303Z,11.72
2022-10-10T03:09:30.302Z,11.77
2022-10-10T03:10:27.038Z,11.68
2022-10-10T03:11:23.802Z,11.58
2022-10-10T03:12:20.489Z,11.63
2022-10-10T03:13:18.488Z,11.55
2022-10-10T03:14:15.208Z,11.52
2022-10-10T03:15:12.301Z,11.47
2022-10-10T03:16:09.120Z,11.41
2022-10-10T03:17:05.833Z,11.03
2022-10-10T03:18:02.517Z,11.09
2022-10-10T03:18:59.246Z,11.20
2022-10-10T03:19:55.951Z,11.18
2022-10-10T03:20:56.478Z,11.49
2022-10-10T03:21:53.376Z,11.66
2022-10-10T03:22:50.348Z,11.30
2022-10-10T03:23:47.180Z,11.86
2022-10-10T03:24:43.921Z,11.10
2022-10-10T03:25:42.384Z,11.63
2022-10-10T03:26:39.094Z,11.49
2022-10-10T03:27:37.006Z,10.32
2022-10-10T03:28:33.881Z,11.56
2022-10-10T03:29:30.641Z,11.58
2022-10-10T03:30:27.354Z,11.75
2022-10-10T03:31:24.274Z,11.85
2022-10-10T03:32:21.400Z,11.68
2022-10-10T03:33:18.209Z,11.89
2022-10-10T03:34:14.913Z,11.74
2022-10-10T03:35:11.663Z,11.60
2022-10-10T03:36:08.376Z,11.22
2022-10-10T03:37:05.119Z,11.63
2022-10-10T03:38:02.594Z,11.55
2022-10-10T03:38:59.312Z,11.18
2022-10-10T03:39:56.010Z,11.61
2022-10-10T03:40:52.926Z,11.56
2022-10-10T03:41:50.410Z,11.86
2022-10-10T03:42:47.827Z,11.88
2022-10-10T03:43:44.808Z,11.64
2022-10-10T03:44:41.493Z,11.62
2022-10-10T03:45:39.120Z,10.80
2022-10-10T03:46:35.926Z,11.44
2022-10-10T03:47:32.605Z,11.91
2022-10-10T03:48:29.369Z,11.75
2022-10-10T03:49:26.071Z,11.76
2022-10-10T03:50:22.774Z,11.85
2022-10-10T03:51:19.643Z,11.70
2022-10-10T03:52:16.511Z,11.60
2022-10-10T03:53:13.217Z,11.63
2022-10-10T03:54:10.181Z,11.58
2022-10-10T03:55:07.368Z,11.53
2022-10-10T03:56:04.463Z,11.56
2022-10-10T03:57:01.172Z,11.26
2022-10-10T03:57:58.064Z,11.37
2022-10-10T03:58:54.870Z,10.66
2022-10-10T03:59:51.608Z,10.92
2022-10-10T04:01:00.332Z,11.19
2022-10-10T04:01:57.074Z,10.73
2022-10-10T04:02:53.946Z,10.82
2022-10-10T04:03:52.303Z,10.81
2022-10-10T04:04:49.087Z,10.94
2022-10-10T04:05:45.815Z,10.88
2022-10-10T04:06:42.550Z,10.93
2022-10-10T04:07:41.515Z,10.91
2022-10-10T04:08:38.946Z,10.86
2022-10-10T04:09:35.691Z,10.72
2022-10-10T04:10:32.836Z,10.07
2022-10-10T04:11:29.568Z,10.12
2022-10-10T04:12:26.262Z,10.82
2022-10-10T04:13:27.834Z,10.68
2022-10-10T04:14:24.554Z,10.81
2022-10-10T04:15:21.592Z,10.43
2022-10-10T04:16:18.522Z,10.69
2022-10-10T04:17:15.721Z,9.60
2022-10-10T04:18:12.408Z,9.72
2022-10-10T04:19:09.114Z,10.55
2022-10-10T04:20:06.077Z,10.55
2022-10-10T04:21:05.135Z,10.47
2022-10-10T04:22:01.833Z,10.38
2022-10-10T04:22:58.593Z,10.09
2022-10-10T04:23:55.420Z,10.66
2022-10-10T04:24:52.118Z,10.54
2022-10-10T04:25:52.725Z,10.31
2022-10-10T04:26:49.427Z,10.27
2022-10-10T04:27:46.134Z,10.52
2022-10-10T04:28:42.875Z,10.37
2022-10-10T04:29:39.622Z,10.22
2022-10-10T04:30:36.338Z,10.32
2022-10-10T04:31:33.342Z,10.01
2022-10-10T04:32:30.039Z,10.18
2022-10-10T04:33:26.728Z,10.07
2022-10-10T04:34:23.566Z,10.19
2022-10-10T04:35:20.269Z,9.85
2022-10-10T04:36:16.966Z,9.59
2022-10-10T04:37:13.679Z,10.15
2022-10-10T04:38:10.375Z,10.14
2022-10-10T04:39:07.106Z,10.19
2022-10-10T04:40:04.847Z,10.19
2022-10-10T04:41:01.647Z,9.95
2022-10-10T04:41:58.416Z,9.71
2022-10-10T04:42:56.075Z,10.06
2022-10-10T04:43:52.776Z,9.37
2022-10-10T04:44:49.474Z,9.67
2022-10-10T04:45:46.505Z,10.01
2022-10-10T04:46:43.210Z,10.10
2022-10-10T04:47:39.898Z,10.12
2022-10-10T04:48:37.738Z,9.93
2022-10-10T04:49:34.434Z,9.85
2022-10-10T04:50:31.275Z,10.23
2022-10-10T04:51:28.078Z,8.96
2022-10-10T04:52:25.163Z,9.73
2022-10-10T04:53:22.332Z,9.71
2022-10-10T04:54:19.060Z,10.10
2022-10-10T04:55:16.100Z,10.02
2022-10-10T04:56:12.833Z,9.98
2022-10-10T04:57:09.685Z,10.26
2022-10-10T04:58:06.438Z,10.19
2022-10-10T04:59:03.199Z,10.22
2022-10-10T04:59:59.993Z,10.17
2022-10-10T05:00:56.772Z,10.16
2022-10-10T05:01:55.341Z,10.19
2022-10-10T05:02:55.151Z,9.33
2022-10-10T05:03:51.948Z,10.09
2022-10-10T05:04:49.068Z,10.19
2022-10-10T05:05:45.811Z,10.11
2022-10-10T05:06:42.690Z,10.00
2022-10-10T05:07:39.475Z,9.98
2022-10-10T05:08:36.209Z,10.02
2022-10-10T05:09:33.826Z,9.86
2022-10-10T05:10:30.974Z,10.30
2022-10-10T05:11:27.800Z,10.27
2022-10-10T05:12:24.868Z,10.41
2022-10-10T05:13:21.607Z,10.42
2022-10-10T05:14:18.311Z,10.40
2022-10-10T05:15:15.124Z,10.36
2022-10-10T05:16:11.946Z,10.27
2022-10-10T05:17:09.166Z,10.37
2022-10-10T05:18:06.430Z,10.44
2022-10-10T05:19:03.520Z,9.49
2022-10-10T05:20:00.279Z,10.38
2022-10-10T05:21:02.572Z,10.40
2022-10-10T05:22:00.355Z,10.21
2022-10-10T05:22:57.312Z,10.00
2022-10-10T05:23:54.589Z,10.53
2022-10-10T05:24:51.382Z,10.46
2022-10-10T05:25:50.186Z,10.50
2022-10-10T05:26:46.918Z,9.63
2022-10-10T05:27:43.666Z,10.45
2022-10-10T05:28:40.483Z,10.39
2022-10-10T05:29:37.268Z,10.38
2022-10-10T05:30:34.013Z,10.19
2022-10-10T05:31:30.760Z,10.30
2022-10-10T05:32:27.506Z,9.32
2022-10-10T05:33:24.257Z,10.10
2022-10-10T05:34:21.027Z,10.41
2022-10-10T05:35:20.278Z,10.12
2022-10-10T05:36:17.098Z,10.16
2022-10-10T05:37:14.182Z,10.65
2022-10-10T05:38:11.186Z,10.41
2022-10-10T05:39:08.109Z,10.67
2022-10-10T05:40:05.645Z,10.66
2022-10-10T05:41:03.228Z,10.82
2022-10-10T05:41:59.922Z,10.90
2022-10-10T05:42:56.654Z,10.94
2022-10-10T05:43:53.349Z,10.97
2022-10-10T05:44:50.042Z,10.77
2022-10-10T05:45:46.752Z,10.99
2022-10-10T05:46:43.567Z,11.07
2022-10-10T05:47:40.295Z,11.17
2022-10-10T05:48:37.034Z,11.09
2022-10-10T05:49:33.812Z,10.98
2022-10-10T05:50:34.762Z,11.05
2022-10-10T05:51:31.475Z,11.13
2022-10-10T05:52:29.278Z,10.21
2022-10-10T05:53:28.341Z,11.40
2022-10-10T05:54:25.072Z,11.48
2022-10-10T05:55:21.798Z,11.72
2022-10-10T05:56:18.582Z,10.90
2022-10-10T05:57:16.469Z,11.48
2022-10-10T05:58:14.043Z,11.49
2022-10-10T05:59:10.773Z,10.85
2022-10-10T06:00:07.974Z,11.27
2022-10-10T06:01:07.050Z,11.46
2022-10-10T06:02:03.891Z,9.92
2022-10-10T06:03:00.620Z,11.35
2022-10-10T06:03:57.428Z,11.38
2022-10-10T06:04:54.126Z,11.57
2022-10-10T06:05:52.192Z,11.45
2022-10-10T06:06:49.446Z,11.52
2022-10-10T06:08:05.500Z,11.52
2022-10-10T06:09:03.768Z,11.84
2022-10-10T06:10:00.495Z,11.76
2022-10-10T06:11:05.650Z,11.50
2022-10-10T06:12:02.465Z,11.70
2022-10-10T06:12:59.157Z,11.23
2022-10-10T06:13:57.061Z,11.79
2022-10-10T06:14:53.795Z,12.25
2022-10-10T06:15:51.287Z,12.23
2022-10-10T06:16:47.985Z,12.29
2022-10-10T06:17:44.718Z,12.07
2022-10-10T06:18:41.430Z,12.14
2022-10-10T06:19:38.222Z,12.39
2022-10-10T06:20:39.766Z,12.52
2022-10-10T06:21:36.528Z,12.51
2022-10-10T06:22:33.263Z,12.93
2022-10-10T06:23:30.145Z,12.66
2022-10-10T06:24:26.853Z,12.95
2022-10-10T06:25:39.418Z,13.01
2022-10-10T06:26:37.561Z,13.06
2022-10-10T06:27:34.271Z,12.95
2022-10-10T06:28:31.718Z,13.05
2022-10-10T06:29:28.525Z,13.15
2022-10-10T06:30:25.370Z,13.02
2022-10-10T06:31:22.218Z,13.19
2022-10-10T06:32:18.995Z,12.12
2022-10-10T06:33:18.651Z,12.70
2022-10-10T06:34:15.381Z,12.96
2022-10-10T06:35:12.121Z,12.95
2022-10-10T06:36:10.009Z,13.00
2022-10-10T06:37:08.517Z,13.01
2022-10-10T06:38:05.243Z,13.25
2022-10-10T06:39:02.083Z,12.79
2022-10-10T06:39:58.870Z,13.48
2022-10-10T06:40:59.749Z,13.20
2022-10-10T06:41:57.241Z,13.27
2022-10-10T06:42:54.409Z,12.63
2022-10-10T06:43:51.877Z,12.91
2022-10-10T06:44:49.246Z,13.36
2022-10-10T06:45:49.704Z,13.26
2022-10-10T06:46:46.413Z,12.55
2022-10-10T06:47:43.119Z,13.22
2022-10-10T06:48:39.982Z,12.99
2022-10-10T06:49:36.878Z,13.19
2022-10-10T06:50:33.805Z,13.09
2022-10-10T06:51:30.921Z,12.76
2022-10-10T06:52:27.631Z,13.33
2022-10-10T06:53:44.647Z,13.41
2022-10-10T06:54:59.626Z,13.33
2022-10-10T06:56:24.954Z,13.44
2022-10-10T06:57:42.954Z,13.66
2022-10-10T06:58:39.606Z,13.84
2022-10-10T06:59:36.475Z,13.91
2022-10-10T07:00:33.245Z,13.59
2022-10-10T07:01:30.001Z,13.45
2022-10-10T07:02:27.265Z,13.75
2022-10-10T07:03:24.331Z,13.88
2022-10-10T07:04:21.033Z,13.79
2022-10-10T07:05:18.635Z,13.80
2022-10-10T07:06:17.990Z,14.03
2022-10-10T07:07:14.687Z,13.96
2022-10-10T07:08:11.409Z,13.67
2022-10-10T07:09:08.190Z,12.99
2022-10-10T07:10:05.744Z,13.95
2022-10-10T07:11:02.679Z,14.14
2022-10-10T07:11:59.374Z,13.94
2022-10-10T07:12:56.257Z,14.39
2022-10-10T07:13:54.173Z,14.10
2022-10-10T07:14:50.872Z,13.65
2022-10-10T07:15:48.117Z,14.19
2022-10-10T07:16:44.847Z,14.26
2022-10-10T07:17:41.633Z,14.05
2022-10-10T07:18:38.797Z,14.17
2022-10-10T07:19:37.792Z,14.22
2022-10-10T07:20:35.374Z,14.32
2022-10-10T07:21:32.488Z,14.32
2022-10-10T07:22:29.215Z,14.47
2022-10-10T07:23:27.248Z,14.48
2022-10-10T07:24:24.097Z,14.40
2022-10-10T07:25:20.879Z,14.06
2022-10-10T07:26:20.990Z,14.51
2022-10-10T07:27:17.915Z,14.44
2022-10-10T07:28:14.875Z,14.63
2022-10-10T07:29:11.611Z,14.60
2022-10-10T07:30:08.963Z,14.58
2022-10-10T07:31:09.336Z,14.15
2022-10-10T07:32:06.014Z,14.38
2022-10-10T07:33:02.721Z,14.75
2022-10-10T07:33:59.435Z,15.00
2022-10-10T07:34:58.349Z,15.18
2022-10-10T07:35:55.067Z,15.35
2022-10-10T07:36:51.861Z,15.28
2022-10-10T07:37:49.061Z,15.40
2022-10-10T07:38:51.781Z,15.43
2022-10-10T07:39:48.505Z,15.39
2022-10-10T07:40:45.206Z,15.35
2022-10-10T07:41:41.992Z,15.23
2022-10-10T07:42:38.944Z,15.40
2022-10-10T07:43:37.616Z,15.50
2022-10-10T07:44:34.905Z,15.48
2022-10-10T07:45:31.787Z,15.47
2022-10-10T07:46:30.638Z,15.25
2022-10-10T07:47:27.419Z,14.68
2022-10-10T07:48:24.229Z,15.52
2022-10-10T07:49:20.924Z,15.30
2022-10-10T07:50:17.741Z,15.15
2022-10-10T07:51:15.565Z,15.29
2022-10-10T07:52:12.522Z,15.74
2022-10-10T07:53:10.529Z,15.19
2022-10-10T07:54:07.243Z,15.32
2022-10-10T07:55:05.456Z,15.75
2022-10-10T07:56:06.426Z,15.52
2022-10-10T07:57:03.131Z,15.72
2022-10-10T07:58:02.967Z,15.45
2022-10-10T07:59:00.929Z,15.48
2022-10-10T07:59:57.687Z,15.38
2022-10-10T08:01:02.890Z,15.99
2022-10-10T08:01:59.976Z,15.59
2022-10-10T08:02:56.787Z,16.00
2022-10-10T08:03:56.361Z,15.94
2022-10-10T08:04:53.066Z,16.06
2022-10-10T08:05:49.751Z,15.87
2022-10-10T08:06:46.580Z,15.31
2022-10-10T08:07:43.311Z,15.96
2022-10-10T08:08:50.505Z,16.28
2022-10-10T08:09:48.189Z,16.28
2022-10-10T08:10:45.025Z,16.36
2022-10-10T08:11:41.769Z,15.78
2022-10-10T08:12:38.577Z,15.97
2022-10-10T08:13:37.423Z,15.90
2022-10-10T08:14:34.186Z,16.01
2022-10-10T08:15:33.845Z,16.25
2022-10-10T08:16:31.264Z,16.40
2022-10-10T08:17:27.997Z,16.26
2022-10-10T08:18:24.854Z,16.47
2022-10-10T08:19:21.718Z,15.87
2022-10-10T08:20:19.166Z,16.34
2022-10-10T08:21:18.068Z,15.81
2022-10-10T08:22:14.827Z,16.15
2022-10-10T08:23:11.762Z,16.20
2022-10-10T08:24:09.134Z,16.27
2022-10-10T08:25:06.543Z,16.39
2022-10-10T08:26:07.125Z,15.89
2022-10-10T08:27:03.949Z,16.26
2022-10-10T08:28:02.029Z,15.85
2022-10-10T08:28:58.811Z,16.25
2022-10-10T08:29:55.593Z,16.16
2022-10-10T08:30:52.313Z,15.32
2022-10-10T08:31:49.023Z,16.35
2022-10-10T08:32:45.797Z,16.44
2022-10-10T08:33:44.243Z,16.55
2022-10-10T08:34:41.005Z,16.30
2022-10-10T08:35:40.927Z,16.63
2022-10-10T08:36:37.656Z,16.73
2022-10-10T08:37:37.312Z,16.27
2022-10-10T08:38:34.516Z,16.81
2022-10-10T08:39:32.150Z,16.44
2022-10-10T08:40:29.094Z,16.40
2022-10-10T08:41:40.655Z,16.42
2022-10-10T08:42:48.880Z,16.11
2022-10-10T08:43:57.696Z,16.42
2022-10-10T08:45:02.639Z,16.27
2022-10-10T08:46:14.618Z,16.20
2022-10-10T08:47:29.993Z,16.17
2022-10-10T08:48:31.299Z,16.08
2022-10-10T08:49:44.802Z,16.64
2022-10-10T08:50:49.257Z,16.98
2022-10-10T08:51:54.635Z,17.19
2022-10-10T08:53:00.948Z,17.25
2022-10-10T08:54:04.270Z,17.37
2022-10-10T08:55:04.469Z,17.10
2022-10-10T08:56:02.478Z,17.28
2022-10-10T08:57:04.385Z,17.08
2022-10-10T08:58:18.758Z,16.95
2022-10-10T08:59:25.850Z,16.86
2022-10-10T09:00:26.377Z,16.95
2022-10-10T09:02:18.174Z,16.98
2022-10-10T09:03:01.066Z,17.29
2022-10-10T09:04:02.010Z,17.42
2022-10-10T09:04:58.743Z,17.22
2022-10-10T09:06:13.742Z,17.37
2022-10-10T09:07:49.431Z,17.40
2022-10-10T09:09:08.243Z,17.47
2022-10-10T09:10:25.962Z,17.39
2022-10-10T09:11:53.434Z,17.05
2022-10-10T09:13:02.518Z,17.52
2022-10-10T09:14:17.322Z,17.69
2022-10-10T09:15:19.953Z,17.71
2022-10-10T09:16:54.218Z,17.81
2022-10-10T09:18:15.053Z,17.82
2022-10-10T09:19:34.902Z,17.87
2022-10-10T09:20:51.534Z,17.64
2022-10-10T09:21:48.633Z,17.63
2022-10-10T09:23:03.448Z,17.88
2022-10-10T09:24:12.115Z,18.05
2022-10-10T09:25:35.777Z,18.06
2022-10-10T09:26:44.121Z,18.17
2022-10-10T09:27:47.731Z,18.17
2022-10-10T09:29:25.984Z,18.18
2022-10-10T09:30:22.855Z,18.32
2022-10-10T09:31:42.822Z,17.17
2022-10-10T09:32:46.201Z,18.07
2022-10-10T09:34:02.176Z,17.56
2022-10-10T09:35:22.966Z,18.61
2022-10-10T09:36:33.744Z,18.57
2022-10-10T09:37:57.835Z,18.62
2022-10-10T09:39:01.713Z,18.75
2022-10-10T09:40:08.213Z,18.93
2022-10-10T09:41:34.841Z,18.76
2022-10-10T09:42:37.603Z,18.97
2022-10-10T09:43:35.298Z,19.05
2022-10-10T09:44:33.101Z,19.05
2022-10-10T09:45:44.850Z,19.12
2022-10-10T09:46:42.042Z,19.15
2022-10-10T09:47:39.336Z,19.28
2022-10-10T09:48:41.119Z,19.26
2022-10-10T09:49:38.164Z,18.79
2022-10-10T09:50:37.350Z,19.02
2022-10-10T09:51:36.012Z,18.89
2022-10-10T09:52:32.751Z,19.26
2022-10-10T09:53:29.458Z,19.53
2022-10-10T09:54:26.240Z,19.55
2022-10-10T09:55:33.832Z,19.41
2022-10-10T09:56:42.315Z,19.50
2022-10-10T09:57:42.802Z,19.55
2022-10-10T09:58:43.603Z,19.57
2022-10-10T09:59:45.973Z,19.67
2022-10-10T10:00:42.803Z,19.80
2022-10-10T10:01:39.576Z,19.86
2022-10-10T10:02:36.333Z,19.81
2022-10-10T10:03:33.112Z,19.35
2022-10-10T10:04:33.529Z,19.26
2022-10-10T10:05:30.997Z,19.52
2022-10-10T10:06:27.878Z,19.18
2022-10-10T10:07:36.401Z,19.05
2022-10-10T10:08:36.053Z,19.48
2022-10-10T10:09:33.956Z,19.54
2022-10-10T10:10:35.885Z,19.28
2022-10-10T10:11:41.633Z,19.48
2022-10-10T10:12:41.961Z,19.65
2022-10-10T10:13:38.769Z,19.44
2022-10-10T10:14:38.506Z,19.59
2022-10-10T10:15:35.271Z,19.46
2022-10-10T10:16:36.048Z,19.93
2022-10-10T10:17:33.386Z,19.46
2022-10-10T10:18:31.191Z,18.64
2022-10-10T10:19:46.207Z,19.25
2022-10-10T10:20:45.478Z,19.64
2022-10-10T10:21:51.609Z,19.46
2022-10-10T10:22:48.416Z,19.89
2022-10-10T10:23:58.370Z,19.99
2022-10-10T10:24:55.214Z,20.12
2022-10-10T10:26:01.272Z,20.26
2022-10-10T10:27:19.086Z,19.93
2022-10-10T10:28:20.934Z,20.34
2022-10-10T10:29:26.889Z,20.41
2022-10-10T10:30:26.030Z,20.51
2022-10-10T10:31:45.679Z,20.33
2022-10-10T10:33:03.050Z,20.77
2022-10-10T10:34:46.435Z,20.41
2022-10-10T10:35:54.683Z,20.40
2022-10-10T10:37:10.411Z,20.80
2022-10-10T10:38:38.263Z,20.71
2022-10-10T10:40:07.006Z,20.66
2022-10-10T10:41:23.798Z,20.36
2022-10-10T10:42:59.317Z,20.27
2022-10-10T10:44:05.131Z,20.35
2022-10-10T10:45:41.269Z,20.56
2022-10-10T10:47:03.610Z,20.69
2022-10-10T10:48:21.688Z,20.53
2022-10-10T10:49:28.479Z,20.60
2022-10-10T10:50:31.191Z,20.24
2022-10-10T10:51:27.834Z,20.63
2022-10-10T10:52:24.561Z,20.25
2022-10-10T10:53:53.335Z,20.28
2022-10-10T10:55:02.180Z,20.37
2022-10-10T10:56:14.358Z,20.45
2022-10-10T10:57:36.920Z,20.22
2022-10-10T11:01:22.483Z,20.49
2022-10-10T11:01:56.971Z,20.51
2022-10-10T11:03:35.000Z,20.73
2022-10-10T11:05:17.848Z,20.58
2022-10-10T11:06:32.945Z,20.76
2022-10-10T11:08:03.760Z,20.78
2022-10-10T11:09:03.510Z,20.79
2022-10-10T11:10:24.672Z,20.90
2022-10-10T11:11:34.441Z,20.71
2022-10-10T11:12:40.306Z,20.85
2022-10-10T11:13:53.634Z,20.45
2022-10-10T11:15:02.980Z,19.75
2022-10-10T11:16:43.546Z,20.62
2022-10-10T11:17:52.723Z,20.56
2022-10-10T11:19:11.093Z,20.64
2022-10-10T11:20:22.085Z,20.54
2022-10-10T11:21:26.945Z,19.86
2022-10-10T11:22:39.379Z,20.46
2022-10-10T11:23:45.033Z,20.31
2022-10-10T11:24:55.754Z,20.46
2022-10-10T11:26:02.659Z,20.51
2022-10-10T11:27:07.482Z,20.29
2022-10-10T11:28:36.806Z,20.41
2022-10-10T11:29:48.194Z,20.51
2022-10-10T11:30:54.170Z,19.76
2022-10-10T11:32:13.177Z,20.03
2022-10-10T11:33:09.875Z,20.50
2022-10-10T11:34:32.136Z,20.44
2022-10-10T11:35:42.558Z,20.50
2022-10-10T11:36:44.868Z,20.64
2022-10-10T11:37:48.253Z,20.53
2022-10-10T11:39:00.125Z,20.71
2022-10-10T11:40:03.850Z,20.81
2022-10-10T11:41:13.833Z,20.98
2022-10-10T11:42:46.049Z,20.61
2022-10-10T11:43:46.761Z,20.73
2022-10-10T11:44:56.163Z,20.55
2022-10-10T11:46:03.241Z,20.25
2022-10-10T11:47:27.029Z,20.44
2022-10-10T11:48:37.293Z,20.39
2022-10-10T11:50:00.380Z,20.40
2022-10-10T11:51:15.419Z,20.73
2022-10-10T11:52:34.415Z,20.78
2022-10-10T11:53:45.939Z,20.28
2022-10-10T11:55:03.834Z,20.64
2022-10-10T11:56:29.714Z,20.62
2022-10-10T11:57:53.468Z,20.73
2022-10-10T11:59:37.651Z,20.58
2022-10-10T12:00:40.715Z,19.87
2022-10-10T12:01:46.702Z,20.72
2022-10-10T12:02:46.353Z,20.44
2022-10-10T12:03:43.445Z,20.93
2022-10-10T12:04:40.552Z,20.72
2022-10-10T12:05:43.054Z,20.79
2022-10-10T12:06:47.552Z,20.59
2022-10-10T12:07:54.174Z,20.72
2022-10-10T12:08:59.503Z,20.74
2022-10-10T12:10:15.592Z,20.51
2022-10-10T12:11:39.609Z,20.61
2022-10-10T12:12:44.643Z,20.49
2022-10-10T12:13:52.390Z,20.77
2022-10-10T12:14:54.345Z,20.61
2022-10-10T12:15:56.666Z,20.81
2022-10-10T12:16:54.164Z,20.61
2022-10-10T12:17:51.969Z,20.75
2022-10-10T12:19:01.446Z,20.64
2022-10-10T12:20:15.278Z,20.91
2022-10-10T12:21:18.456Z,20.56
2022-10-10T12:22:29.760Z,20.07
2022-10-10T12:23:33.885Z,20.70
2022-10-10T12:24:34.193Z,21.04
2022-10-10T12:25:45.593Z,21.03
2022-10-10T12:26:57.528Z,21.01
2022-10-10T12:28:15.633Z,21.02
2022-10-10T12:29:12.381Z,21.03
2022-10-10T12:30:09.279Z,21.07
2022-10-10T12:31:18.075Z,21.05
2022-10-10T12:32:14.966Z,21.03
2022-10-10T12:33:41.977Z,20.91
2022-10-10T12:34:47.944Z,20.96
2022-10-10T12:35:44.817Z,20.51
2022-10-10T12:36:43.698Z,20.92
2022-10-10T12:38:20.290Z,20.93
2022-10-10T12:39:16.968Z,20.92
2022-10-10T12:40:13.622Z,20.93
2022-10-10T12:41:15.527Z,20.77
2022-10-10T12:42:38.363Z,20.94
2022-10-10T12:43:51.079Z,20.65
2022-10-10T12:44:47.902Z,20.96
2022-10-10T12:45:53.658Z,21.06
2022-10-10T12:47:14.962Z,21.10
2022-10-10T12:48:21.943Z,20.60
2022-10-10T12:49:24.830Z,20.60
2022-10-10T12:50:27.698Z,20.89
2022-10-10T12:51:25.787Z,20.62
2022-10-10T12:52:35.747Z,20.92
2022-10-10T12:53:34.699Z,20.78
2022-10-10T12:54:43.967Z,20.80
2022-10-10T12:56:02.794Z,20.69
2022-10-10T12:57:09.257Z,20.75
2022-10-10T12:58:30.319Z,19.95
2022-10-10T12:59:27.209Z,20.49
2022-10-10T13:00:45.845Z,20.82
2022-10-10T13:01:52.005Z,20.56
2022-10-10T13:02:55.273Z,20.88
2022-10-10T13:03:55.850Z,20.79
2022-10-10T13:04:58.873Z,20.81
2022-10-10T13:06:03.748Z,20.46
2022-10-10T13:07:03.608Z,20.79
2022-10-10T13:08:04.990Z,20.74
2022-10-10T13:09:07.651Z,20.88
2022-10-10T13:10:20.226Z,20.84
2022-10-10T13:11:16.986Z,20.56
2022-10-10T13:12:25.305Z,20.52
2022-10-10T13:13:22.057Z,20.24
2022-10-10T13:14:18.831Z,20.41
2022-10-10T13:15:21.326Z,20.60
2022-10-10T13:16:22.207Z,20.55
2022-10-10T13:17:23.809Z,20.71
2022-10-10T13:18:52.742Z,20.81
2022-10-10T13:19:50.653Z,20.46
2022-10-10T13:20:47.405Z,20.61
2022-10-10T13:21:44.415Z,20.73
2022-10-10T13:22:45.168Z,20.83
2022-10-10T13:25:11.502Z,19.93
2022-10-10T13:26:20.827Z,20.84
2022-10-10T13:27:28.553Z,20.04
2022-10-10T13:28:25.535Z,20.76